sensor_id;sensor_type;location;lat;lon;timestamp;temperature;humidity
66582;SHT31;53438;48.898;2.308;2023-11-22T00:00:07;11.34;80.05
66582;SHT31;53438;48.898;2.308;2023-11-22T00:02:33;11.24;80.35
66582;SHT31;53438;48.898;2.308;2023-11-22T00:04:58;11.19;80.54
66582;SHT31;53438;48.898;2.308;2023-11-22T00:07:23;11.41;80.06
66582;SHT31;53438;48.898;2.308;2023-11-22T00:09:49;11.17;80.57
66582;SHT31;53438;48.898;2.308;2023-11-22T00:12:14;11.06;81.29
66582;SHT31;53438;48.898;2.308;2023-11-22T00:14:43;10.93;81.93
66582;SHT31;53438;48.898;2.308;2023-11-22T00:17:08;10.99;81.95
66582;SHT31;53438;48.898;2.308;2023-11-22T00:19:33;10.89;82.34
66582;SHT31;53438;48.898;2.308;2023-11-22T00:21:59;10.95;82.61
66582;SHT31;53438;48.898;2.308;2023-11-22T00:24:24;11.06;82.19
66582;SHT31;53438;48.898;2.308;2023-11-22T00:26:49;10.82;82.72
66582;SHT31;53438;48.898;2.308;2023-11-22T00:29:15;10.97;82.46
66582;SHT31;53438;48.898;2.308;2023-11-22T00:31:40;11.05;82.31
66582;SHT31;53438;48.898;2.308;2023-11-22T00:34:05;10.97;82.29
66582;SHT31;53438;48.898;2.308;2023-11-22T00:36:31;10.93;82.61
66582;SHT31;53438;48.898;2.308;2023-11-22T00:38:57;11.13;82.36
66582;SHT31;53438;48.898;2.308;2023-11-22T00:41:22;11.03;82.12
66582;SHT31;53438;48.898;2.308;2023-11-22T00:43:47;10.89;82.68
66582;SHT31;53438;48.898;2.308;2023-11-22T00:46:13;10.99;82.34
66582;SHT31;53438;48.898;2.308;2023-11-22T00:48:38;11.00;82.16
66582;SHT31;53438;48.898;2.308;2023-11-22T00:51:03;11.02;82.55
66582;SHT31;53438;48.898;2.308;2023-11-22T00:53:34;11.09;81.83
66582;SHT31;53438;48.898;2.308;2023-11-22T00:56:01;11.19;81.59
66582;SHT31;53438;48.898;2.308;2023-11-22T00:58:26;10.88;82.15
66582;SHT31;53438;48.898;2.308;2023-11-22T04:02:30;9.49;77.00
66582;SHT31;53438;48.898;2.308;2023-11-22T04:04:55;9.21;77.94
66582;SHT31;53438;48.898;2.308;2023-11-22T04:07:21;9.55;77.21
66582;SHT31;53438;48.898;2.308;2023-11-22T04:09:47;9.46;77.60
66582;SHT31;53438;48.898;2.308;2023-11-22T04:12:13;9.56;76.68
66582;SHT31;53438;48.898;2.308;2023-11-22T04:14:40;9.43;77.16
66582;SHT31;53438;48.898;2.308;2023-11-22T04:17:05;9.49;76.95
66582;SHT31;53438;48.898;2.308;2023-11-22T04:19:31;9.00;78.10
66582;SHT31;53438;48.898;2.308;2023-11-22T04:21:56;9.34;77.01
66582;SHT31;53438;48.898;2.308;2023-11-22T04:24:21;9.03;77.00
66582;SHT31;53438;48.898;2.308;2023-11-22T04:26:47;9.07;77.45
66582;SHT31;53438;48.898;2.308;2023-11-22T04:29:12;9.18;76.01
66582;SHT31;53438;48.898;2.308;2023-11-22T04:31:37;9.24;76.00
66582;SHT31;53438;48.898;2.308;2023-11-22T04:34:03;9.08;76.60
66582;SHT31;53438;48.898;2.308;2023-11-22T04:36:28;8.85;77.02
66582;SHT31;53438;48.898;2.308;2023-11-22T04:38:54;9.03;77.23
66582;SHT31;53438;48.898;2.308;2023-11-22T04:41:19;8.92;77.26
66582;SHT31;53438;48.898;2.308;2023-11-22T04:43:45;8.64;77.58
66582;SHT31;53438;48.898;2.308;2023-11-22T04:46:10;8.64;77.98
66582;SHT31;53438;48.898;2.308;2023-11-22T04:48:35;8.76;77.61
66582;SHT31;53438;48.898;2.308;2023-11-22T04:51:02;8.45;78.45
66582;SHT31;53438;48.898;2.308;2023-11-22T04:53:27;8.45;78.49
66582;SHT31;53438;48.898;2.308;2023-11-22T04:55:53;8.70;77.31
66582;SHT31;53438;48.898;2.308;2023-11-22T04:58:18;8.37;77.73
66582;SHT31;53438;48.898;2.308;2023-11-22T05:00:43;8.21;78.49
66582;SHT31;53438;48.898;2.308;2023-11-22T05:03:10;8.30;78.11
66582;SHT31;53438;48.898;2.308;2023-11-22T05:05:35;8.56;77.62
66582;SHT31;53438;48.898;2.308;2023-11-22T05:08:01;8.45;77.90
66582;SHT31;53438;48.898;2.308;2023-11-22T05:10:27;8.74;76.85
66582;SHT31;53438;48.898;2.308;2023-11-22T05:12:53;8.54;76.83
66582;SHT31;53438;48.898;2.308;2023-11-22T05:15:18;8.22;77.16
66582;SHT31;53438;48.898;2.308;2023-11-22T05:17:44;8.30;77.04
66582;SHT31;53438;48.898;2.308;2023-11-22T05:20:10;8.29;77.69
66582;SHT31;53438;48.898;2.308;2023-11-22T05:22:37;8.30;77.25
66582;SHT31;53438;48.898;2.308;2023-11-22T05:25:02;8.28;77.00
66582;SHT31;53438;48.898;2.308;2023-11-22T05:27:28;8.37;77.28
66582;SHT31;53438;48.898;2.308;2023-11-22T05:29:54;8.54;76.45
66582;SHT31;53438;48.898;2.308;2023-11-22T05:32:19;8.59;76.30
66582;SHT31;53438;48.898;2.308;2023-11-22T05:34:44;8.03;77.12
66582;SHT31;53438;48.898;2.308;2023-11-22T05:37:10;8.02;77.17
66582;SHT31;53438;48.898;2.308;2023-11-22T05:39:35;8.36;76.21
66582;SHT31;53438;48.898;2.308;2023-11-22T05:42:02;8.52;75.47
66582;SHT31;53438;48.898;2.308;2023-11-22T05:44:28;8.39;75.26
66582;SHT31;53438;48.898;2.308;2023-11-22T05:46:53;8.49;74.21
66582;SHT31;53438;48.898;2.308;2023-11-22T05:49:19;8.42;74.56
66582;SHT31;53438;48.898;2.308;2023-11-22T05:51:44;8.47;74.43
66582;SHT31;53438;48.898;2.308;2023-11-22T05:54:10;8.42;74.39
66582;SHT31;53438;48.898;2.308;2023-11-22T05:56:37;8.37;74.39
66582;SHT31;53438;48.898;2.308;2023-11-22T05:59:03;8.56;73.91
66582;SHT31;53438;48.898;2.308;2023-11-22T06:01:29;8.57;74.20
66582;SHT31;53438;48.898;2.308;2023-11-22T06:03:55;8.45;73.48
66582;SHT31;53438;48.898;2.308;2023-11-22T06:06:20;8.54;73.89
66582;SHT31;53438;48.898;2.308;2023-11-22T06:08:47;8.61;73.60
66582;SHT31;53438;48.898;2.308;2023-11-22T06:11:12;8.59;73.08
66582;SHT31;53438;48.898;2.308;2023-11-22T06:13:39;8.54;73.10
66582;SHT31;53438;48.898;2.308;2023-11-22T06:16:04;8.57;73.41
66582;SHT31;53438;48.898;2.308;2023-11-22T06:18:29;8.61;73.23
66582;SHT31;53438;48.898;2.308;2023-11-22T06:20:56;8.63;73.35
66582;SHT31;53438;48.898;2.308;2023-11-22T06:23:21;8.56;73.47
66582;SHT31;53438;48.898;2.308;2023-11-22T06:25:47;8.71;73.32
66582;SHT31;53438;48.898;2.308;2023-11-22T06:28:12;8.63;73.82
66582;SHT31;53438;48.898;2.308;2023-11-22T06:30:38;8.47;74.96
66582;SHT31;53438;48.898;2.308;2023-11-22T06:33:03;8.46;75.63
66582;SHT31;53438;48.898;2.308;2023-11-22T06:35:28;8.76;75.17
66582;SHT31;53438;48.898;2.308;2023-11-22T06:37:54;8.54;75.35
66582;SHT31;53438;48.898;2.308;2023-11-22T06:40:19;7.98;77.81
66582;SHT31;53438;48.898;2.308;2023-11-22T06:42:47;8.12;77.25
66582;SHT31;53438;48.898;2.308;2023-11-22T06:45:13;8.40;76.29
66582;SHT31;53438;48.898;2.308;2023-11-22T06:47:41;7.92;77.46
66582;SHT31;53438;48.898;2.308;2023-11-22T06:50:08;8.26;76.72
66582;SHT31;53438;48.898;2.308;2023-11-22T06:52:38;7.84;77.60
66582;SHT31;53438;48.898;2.308;2023-11-22T06:55:04;7.77;77.90
66582;SHT31;53438;48.898;2.308;2023-11-22T06:57:30;8.18;76.73
66582;SHT31;53438;48.898;2.308;2023-11-22T06:59:56;7.84;76.76
66582;SHT31;53438;48.898;2.308;2023-11-22T07:02:22;8.19;75.58
66582;SHT31;53438;48.898;2.308;2023-11-22T07:04:47;8.21;74.87
66582;SHT31;53438;48.898;2.308;2023-11-22T07:07:12;8.24;75.02
66582;SHT31;53438;48.898;2.308;2023-11-22T07:09:42;8.16;75.02
66582;SHT31;53438;48.898;2.308;2023-11-22T07:12:07;7.99;75.86
66582;SHT31;53438;48.898;2.308;2023-11-22T07:14:33;7.92;76.20
66582;SHT31;53438;48.898;2.308;2023-11-22T07:16:58;8.03;75.81
66582;SHT31;53438;48.898;2.308;2023-11-22T07:19:24;8.13;76.11
66582;SHT31;53438;48.898;2.308;2023-11-22T07:21:50;8.06;76.52
66582;SHT31;53438;48.898;2.308;2023-11-22T07:24:15;7.67;77.76
66582;SHT31;53438;48.898;2.308;2023-11-22T07:26:41;7.61;78.16
66582;SHT31;53438;48.898;2.308;2023-11-22T07:29:07;7.40;79.08
66582;SHT31;53438;48.898;2.308;2023-11-22T07:31:33;7.44;79.32
66582;SHT31;53438;48.898;2.308;2023-11-22T07:34:00;7.28;79.17
66582;SHT31;53438;48.898;2.308;2023-11-22T07:36:27;7.07;80.32
66582;SHT31;53438;48.898;2.308;2023-11-22T07:38:53;7.48;79.39
66582;SHT31;53438;48.898;2.308;2023-11-22T07:41:19;7.73;78.35
66582;SHT31;53438;48.898;2.308;2023-11-22T07:43:44;7.71;78.19
66582;SHT31;53438;48.898;2.308;2023-11-22T07:46:09;7.54;79.13
66582;SHT31;53438;48.898;2.308;2023-11-22T07:48:38;7.56;78.67
66582;SHT31;53438;48.898;2.308;2023-11-22T07:51:06;7.50;78.80
66582;SHT31;53438;48.898;2.308;2023-11-22T07:53:31;7.66;78.53
66582;SHT31;53438;48.898;2.308;2023-11-22T07:56:00;8.02;77.50
66582;SHT31;53438;48.898;2.308;2023-11-22T07:58:32;7.91;77.65
66582;SHT31;53438;48.898;2.308;2023-11-22T08:00:58;8.16;76.82
66582;SHT31;53438;48.898;2.308;2023-11-22T08:03:24;8.09;77.03
66582;SHT31;53438;48.898;2.308;2023-11-22T08:05:52;7.82;78.09
66582;SHT31;53438;48.898;2.308;2023-11-22T08:08:21;8.16;76.61
66582;SHT31;53438;48.898;2.308;2023-11-22T08:10:47;8.29;76.23
66582;SHT31;53438;48.898;2.308;2023-11-22T08:13:14;7.92;77.58
66582;SHT31;53438;48.898;2.308;2023-11-22T08:15:40;7.75;77.35
66582;SHT31;53438;48.898;2.308;2023-11-22T08:18:05;7.66;78.41
66582;SHT31;53438;48.898;2.308;2023-11-22T08:20:31;7.91;77.69
66582;SHT31;53438;48.898;2.308;2023-11-22T08:22:56;7.92;77.87
66582;SHT31;53438;48.898;2.308;2023-11-22T08:25:22;8.01;77.42
66582;SHT31;53438;48.898;2.308;2023-11-22T08:27:47;7.96;77.68
66582;SHT31;53438;48.898;2.308;2023-11-22T08:30:13;8.32;76.32
66582;SHT31;53438;48.898;2.308;2023-11-22T08:32:44;8.24;76.24
66582;SHT31;53438;48.898;2.308;2023-11-22T08:35:12;8.42;75.84
66582;SHT31;53438;48.898;2.308;2023-11-22T08:37:40;8.01;77.00
66582;SHT31;53438;48.898;2.308;2023-11-22T08:40:07;8.37;76.62
66582;SHT31;53438;48.898;2.308;2023-11-22T08:42:34;8.39;75.92
66582;SHT31;53438;48.898;2.308;2023-11-22T08:45:01;8.45;75.46
66582;SHT31;53438;48.898;2.308;2023-11-22T08:47:27;8.29;75.93
66582;SHT31;53438;48.898;2.308;2023-11-22T08:49:52;8.16;76.58
66582;SHT31;53438;48.898;2.308;2023-11-22T08:52:18;8.32;76.07
66582;SHT31;53438;48.898;2.308;2023-11-22T08:54:45;8.29;75.95
66582;SHT31;53438;48.898;2.308;2023-11-22T08:57:10;7.95;76.46
66582;SHT31;53438;48.898;2.308;2023-11-22T08:59:39;7.95;76.74
66582;SHT31;53438;48.898;2.308;2023-11-22T09:02:05;7.89;76.81
66582;SHT31;53438;48.898;2.308;2023-11-22T09:04:32;8.37;75.54
66582;SHT31;53438;48.898;2.308;2023-11-22T09:06:58;8.67;74.18
66582;SHT31;53438;48.898;2.308;2023-11-22T09:09:23;8.66;74.07
66582;SHT31;53438;48.898;2.308;2023-11-22T09:11:59;8.83;73.30
66582;SHT31;53438;48.898;2.308;2023-11-22T09:14:25;8.67;73.95
66582;SHT31;53438;48.898;2.308;2023-11-22T09:16:51;8.68;73.62
66582;SHT31;53438;48.898;2.308;2023-11-22T09:19:23;8.68;73.89
66582;SHT31;53438;48.898;2.308;2023-11-22T09:21:49;8.73;73.76
66582;SHT31;53438;48.898;2.308;2023-11-22T09:24:14;8.64;73.74
66582;SHT31;53438;48.898;2.308;2023-11-22T09:26:40;8.50;73.84
66582;SHT31;53438;48.898;2.308;2023-11-22T09:29:06;8.56;73.65
66582;SHT31;53438;48.898;2.308;2023-11-22T09:31:32;8.54;73.90
66582;SHT31;53438;48.898;2.308;2023-11-22T09:33:57;8.59;73.69
66582;SHT31;53438;48.898;2.308;2023-11-22T09:36:23;8.56;73.77
66582;SHT31;53438;48.898;2.308;2023-11-22T09:38:52;8.68;73.61
66582;SHT31;53438;48.898;2.308;2023-11-22T09:41:17;8.70;73.03
66582;SHT31;53438;48.898;2.308;2023-11-22T09:43:43;8.42;73.36
66582;SHT31;53438;48.898;2.308;2023-11-22T09:46:11;8.66;72.74
66582;SHT31;53438;48.898;2.308;2023-11-22T09:48:39;8.76;72.50
66582;SHT31;53438;48.898;2.308;2023-11-22T09:53:40;8.77;73.44
66582;SHT31;53438;48.898;2.308;2023-11-22T09:56:08;8.84;72.74
66582;SHT31;53438;48.898;2.308;2023-11-22T09:58:35;8.92;72.32
66582;SHT31;53438;48.898;2.308;2023-11-22T10:01:04;9.00;72.43
66582;SHT31;53438;48.898;2.308;2023-11-22T10:03:30;9.07;71.91
66582;SHT31;53438;48.898;2.308;2023-11-22T10:05:57;8.95;71.84
66582;SHT31;53438;48.898;2.308;2023-11-22T10:08:25;8.98;72.12
66582;SHT31;53438;48.898;2.308;2023-11-22T10:10:50;8.97;71.90
66582;SHT31;53438;48.898;2.308;2023-11-22T10:13:17;9.05;72.07
66582;SHT31;53438;48.898;2.308;2023-11-22T10:15:45;9.10;71.69
66582;SHT31;53438;48.898;2.308;2023-11-22T10:18:10;9.10;71.44
66582;SHT31;53438;48.898;2.308;2023-11-22T10:20:43;9.05;72.30
66582;SHT31;53438;48.898;2.308;2023-11-22T10:23:13;9.00;71.84
66582;SHT31;53438;48.898;2.308;2023-11-22T10:25:49;9.15;71.47
66582;SHT31;53438;48.898;2.308;2023-11-22T10:28:22;9.04;71.91
66582;SHT31;53438;48.898;2.308;2023-11-22T10:30:50;9.28;71.14
66582;SHT31;53438;48.898;2.308;2023-11-22T10:33:19;9.26;71.13
66582;SHT31;53438;48.898;2.308;2023-11-22T10:35:50;9.15;71.65
66582;SHT31;53438;48.898;2.308;2023-11-22T10:38:19;9.15;71.40
66582;SHT31;53438;48.898;2.308;2023-11-22T10:40:46;9.19;71.12
66582;SHT31;53438;48.898;2.308;2023-11-22T10:43:13;9.28;70.73
66582;SHT31;53438;48.898;2.308;2023-11-22T10:45:38;9.28;70.30
66582;SHT31;53438;48.898;2.308;2023-11-22T10:48:07;9.47;69.80
66582;SHT31;53438;48.898;2.308;2023-11-22T10:50:34;9.52;69.11
66582;SHT31;53438;48.898;2.308;2023-11-22T10:53:01;9.47;69.27
66582;SHT31;53438;48.898;2.308;2023-11-22T10:55:31;9.53;69.35
66582;SHT31;53438;48.898;2.308;2023-11-22T10:58:02;9.36;70.16
66582;SHT31;53438;48.898;2.308;2023-11-22T11:00:29;9.28;70.24
66582;SHT31;53438;48.898;2.308;2023-11-22T11:03:05;9.22;70.26
66582;SHT31;53438;48.898;2.308;2023-11-22T11:05:33;9.18;70.78
66582;SHT31;53438;48.898;2.308;2023-11-22T11:08:07;9.47;68.14
66582;SHT31;53438;48.898;2.308;2023-11-22T11:10:45;9.56;67.43
66582;SHT31;53438;48.898;2.308;2023-11-22T11:13:11;9.55;67.82
66582;SHT31;53438;48.898;2.308;2023-11-22T11:15:39;9.53;68.31
66582;SHT31;53438;48.898;2.308;2023-11-22T11:18:06;9.38;67.63
66582;SHT31;53438;48.898;2.308;2023-11-22T11:20:54;9.01;67.49
66582;SHT31;53438;48.898;2.308;2023-11-22T11:23:21;9.22;68.04
66582;SHT31;53438;48.898;2.308;2023-11-22T11:25:49;9.39;67.20
66582;SHT31;53438;48.898;2.308;2023-11-22T11:28:14;9.60;66.73
66582;SHT31;53438;48.898;2.308;2023-11-22T11:30:40;9.65;66.96
66582;SHT31;53438;48.898;2.308;2023-11-22T11:33:06;9.69;65.99
66582;SHT31;53438;48.898;2.308;2023-11-22T11:35:43;9.43;65.82
66582;SHT31;53438;48.898;2.308;2023-11-22T11:38:15;9.55;65.36
66582;SHT31;53438;48.898;2.308;2023-11-22T11:40:41;9.39;64.78
66582;SHT31;53438;48.898;2.308;2023-11-22T11:43:08;9.59;64.86
66582;SHT31;53438;48.898;2.308;2023-11-22T11:45:41;9.73;64.07
66582;SHT31;53438;48.898;2.308;2023-11-22T11:48:14;9.86;63.45
66582;SHT31;53438;48.898;2.308;2023-11-22T11:50:41;9.83;63.35
66582;SHT31;53438;48.898;2.308;2023-11-22T11:53:06;9.86;63.29
66582;SHT31;53438;48.898;2.308;2023-11-22T11:55:31;9.93;62.67
66582;SHT31;53438;48.898;2.308;2023-11-22T11:57:57;10.18;61.80
66582;SHT31;53438;48.898;2.308;2023-11-22T12:00:29;10.07;59.95
66582;SHT31;53438;48.898;2.308;2023-11-22T12:02:54;10.03;61.10
66582;SHT31;53438;48.898;2.308;2023-11-22T12:05:20;10.06;59.02
66582;SHT31;53438;48.898;2.308;2023-11-22T12:07:45;10.17;58.62
66582;SHT31;53438;48.898;2.308;2023-11-22T12:10:11;10.21;58.34
66582;SHT31;53438;48.898;2.308;2023-11-22T12:12:36;10.20;57.29
66582;SHT31;53438;48.898;2.308;2023-11-22T12:15:02;10.07;59.20
66582;SHT31;53438;48.898;2.308;2023-11-22T12:17:28;10.06;59.79
66582;SHT31;53438;48.898;2.308;2023-11-22T12:20:09;10.14;58.60
66582;SHT31;53438;48.898;2.308;2023-11-22T12:22:35;10.07;57.48
66582;SHT31;53438;48.898;2.308;2023-11-22T12:25:01;10.21;56.21
66582;SHT31;53438;48.898;2.308;2023-11-22T12:27:26;10.14;56.82
66582;SHT31;53438;48.898;2.308;2023-11-22T12:29:51;10.34;56.02
66582;SHT31;53438;48.898;2.308;2023-11-22T12:32:23;10.41;55.37
66582;SHT31;53438;48.898;2.308;2023-11-22T12:34:49;10.25;55.90
66582;SHT31;53438;48.898;2.308;2023-11-22T12:37:20;10.22;56.66
66582;SHT31;53438;48.898;2.308;2023-11-22T12:39:47;10.37;57.80
66582;SHT31;53438;48.898;2.308;2023-11-22T12:42:13;10.31;55.81
66582;SHT31;53438;48.898;2.308;2023-11-22T12:44:51;10.40;54.85
66582;SHT31;53438;48.898;2.308;2023-11-22T12:47:32;10.38;56.03
66582;SHT31;53438;48.898;2.308;2023-11-22T12:50:00;10.54;56.09
66582;SHT31;53438;48.898;2.308;2023-11-22T12:52:26;10.46;56.26
66582;SHT31;53438;48.898;2.308;2023-11-22T12:54:52;10.52;55.44
66582;SHT31;53438;48.898;2.308;2023-11-22T12:57:18;10.35;55.42
66582;SHT31;53438;48.898;2.308;2023-11-22T12:59:43;10.49;55.10
66582;SHT31;53438;48.898;2.308;2023-11-22T13:02:09;10.66;55.18
66582;SHT31;53438;48.898;2.308;2023-11-22T13:04:34;10.42;55.75
66582;SHT31;53438;48.898;2.308;2023-11-22T13:07:00;10.24;56.17
66582;SHT31;53438;48.898;2.308;2023-11-22T13:09:26;10.25;55.58
66582;SHT31;53438;48.898;2.308;2023-11-22T13:11:52;10.20;55.77
66582;SHT31;53438;48.898;2.308;2023-11-22T13:14:17;10.38;55.93
66582;SHT31;53438;48.898;2.308;2023-11-22T13:16:43;10.56;55.51
66582;SHT31;53438;48.898;2.308;2023-11-22T13:19:10;10.52;56.09
66582;SHT31;53438;48.898;2.308;2023-11-22T13:21:36;10.59;56.30
66582;SHT31;53438;48.898;2.308;2023-11-22T13:24:02;10.77;55.36
66582;SHT31;53438;48.898;2.308;2023-11-22T13:26:28;10.83;54.72
66582;SHT31;53438;48.898;2.308;2023-11-22T13:28:54;10.82;55.40
66582;SHT31;53438;48.898;2.308;2023-11-22T13:31:20;10.80;54.88
66582;SHT31;53438;48.898;2.308;2023-11-22T13:33:47;10.83;54.96
66582;SHT31;53438;48.898;2.308;2023-11-22T13:36:13;10.79;54.84
66582;SHT31;53438;48.898;2.308;2023-11-22T13:38:39;10.85;54.54
66582;SHT31;53438;48.898;2.308;2023-11-22T13:41:05;10.85;54.19
66582;SHT31;53438;48.898;2.308;2023-11-22T13:43:30;10.86;54.64
66582;SHT31;53438;48.898;2.308;2023-11-22T13:45:58;10.97;54.05
66582;SHT31;53438;48.898;2.308;2023-11-22T13:48:23;10.85;53.85
66582;SHT31;53438;48.898;2.308;2023-11-22T13:50:49;10.99;53.77
66582;SHT31;53438;48.898;2.308;2023-11-22T13:53:14;11.12;52.96
66582;SHT31;53438;48.898;2.308;2023-11-22T13:55:40;10.93;53.14
66582;SHT31;53438;48.898;2.308;2023-11-22T13:58:05;10.59;54.29
66582;SHT31;53438;48.898;2.308;2023-11-22T14:00:31;10.86;53.88
66582;SHT31;53438;48.898;2.308;2023-11-22T14:03:01;10.85;53.24
66582;SHT31;53438;48.898;2.308;2023-11-22T14:05:35;11.00;53.10
66582;SHT31;53438;48.898;2.308;2023-11-22T14:08:01;10.79;51.77
66582;SHT31;53438;48.898;2.308;2023-11-22T14:10:27;10.91;52.67
66582;SHT31;53438;48.898;2.308;2023-11-22T14:12:53;11.02;50.91
66582;SHT31;53438;48.898;2.308;2023-11-22T14:15:19;11.02;51.60
66582;SHT31;53438;48.898;2.308;2023-11-22T14:17:47;11.16;51.71
66582;SHT31;53438;48.898;2.308;2023-11-22T14:20:15;11.20;52.08
66582;SHT31;53438;48.898;2.308;2023-11-22T14:22:41;11.27;51.61
66582;SHT31;53438;48.898;2.308;2023-11-22T14:25:10;10.99;52.39
66582;SHT31;53438;48.898;2.308;2023-11-22T14:27:39;11.07;52.53
66582;SHT31;53438;48.898;2.308;2023-11-22T14:30:06;11.07;52.36
66582;SHT31;53438;48.898;2.308;2023-11-22T14:32:34;11.12;52.93
66582;SHT31;53438;48.898;2.308;2023-11-22T14:35:03;11.19;52.81
66582;SHT31;53438;48.898;2.308;2023-11-22T14:37:29;10.91;53.99
66582;SHT31;53438;48.898;2.308;2023-11-22T14:39:55;10.59;55.68
66582;SHT31;53438;48.898;2.308;2023-11-22T14:42:21;10.51;56.14
66582;SHT31;53438;48.898;2.308;2023-11-22T14:44:47;10.49;56.96
66582;SHT31;53438;48.898;2.308;2023-11-22T14:47:13;10.42;57.17
66582;SHT31;53438;48.898;2.308;2023-11-22T14:49:44;10.40;57.28
66582;SHT31;53438;48.898;2.308;2023-11-22T14:52:09;10.34;57.58
66582;SHT31;53438;48.898;2.308;2023-11-22T14:54:38;10.25;57.96
66582;SHT31;53438;48.898;2.308;2023-11-22T14:57:03;10.25;57.94
66582;SHT31;53438;48.898;2.308;2023-11-22T14:59:28;10.30;58.05
66582;SHT31;53438;48.898;2.308;2023-11-22T15:01:56;10.31;58.32
66582;SHT31;53438;48.898;2.308;2023-11-22T15:04:23;10.24;58.25
66582;SHT31;53438;48.898;2.308;2023-11-22T15:06:49;10.27;58.35
66582;SHT31;53438;48.898;2.308;2023-11-22T15:09:14;10.51;58.21
66582;SHT31;53438;48.898;2.308;2023-11-22T15:11:42;10.65;57.28
66582;SHT31;53438;48.898;2.308;2023-11-22T15:14:07;10.66;57.40
66582;SHT31;53438;48.898;2.308;2023-11-22T15:16:33;10.35;58.21
66582;SHT31;53438;48.898;2.308;2023-11-22T15:18:58;10.21;58.59
66582;SHT31;53438;48.898;2.308;2023-11-22T15:21:28;10.14;58.84
66582;SHT31;53438;48.898;2.308;2023-11-22T15:23:54;10.40;58.69
66582;SHT31;53438;48.898;2.308;2023-11-22T15:26:22;10.35;58.61
66582;SHT31;53438;48.898;2.308;2023-11-22T15:28:47;10.34;58.29
66582;SHT31;53438;48.898;2.308;2023-11-22T15:31:16;10.27;58.38
66582;SHT31;53438;48.898;2.308;2023-11-22T15:33:42;10.31;58.56
66582;SHT31;53438;48.898;2.308;2023-11-22T15:36:07;10.37;58.22
66582;SHT31;53438;48.898;2.308;2023-11-22T15:38:33;10.42;58.28
66582;SHT31;53438;48.898;2.308;2023-11-22T15:41:00;10.72;57.27
66582;SHT31;53438;48.898;2.308;2023-11-22T15:43:28;10.75;57.10
66582;SHT31;53438;48.898;2.308;2023-11-22T15:45:54;10.41;57.92
66582;SHT31;53438;48.898;2.308;2023-11-22T15:48:20;10.44;58.39
66582;SHT31;53438;48.898;2.308;2023-11-22T15:50:45;10.30;58.90
66582;SHT31;53438;48.898;2.308;2023-11-22T15:53:11;10.13;59.46
66582;SHT31;53438;48.898;2.308;2023-11-22T15:55:39;10.01;59.47
66582;SHT31;53438;48.898;2.308;2023-11-22T15:58:04;10.11;59.58
66582;SHT31;53438;48.898;2.308;2023-11-22T16:00:29;10.10;59.38
66582;SHT31;53438;48.898;2.308;2023-11-22T16:02:55;10.16;59.51
66582;SHT31;53438;48.898;2.308;2023-11-22T16:05:21;10.07;59.72
66582;SHT31;53438;48.898;2.308;2023-11-22T16:07:48;10.04;60.21
66582;SHT31;53438;48.898;2.308;2023-11-22T16:10:15;9.97;60.61
66582;SHT31;53438;48.898;2.308;2023-11-22T16:12:42;10.00;60.65
66582;SHT31;53438;48.898;2.308;2023-11-22T16:15:08;10.10;60.70
66582;SHT31;53438;48.898;2.308;2023-11-22T16:17:33;10.07;60.38
66582;SHT31;53438;48.898;2.308;2023-11-22T16:20:02;10.11;60.48
66582;SHT31;53438;48.898;2.308;2023-11-22T16:22:40;10.18;60.78
66582;SHT31;53438;48.898;2.308;2023-11-22T16:25:10;10.06;60.78
66582;SHT31;53438;48.898;2.308;2023-11-22T16:27:36;9.98;60.94
66582;SHT31;53438;48.898;2.308;2023-11-22T16:30:01;10.04;61.01
66582;SHT31;53438;48.898;2.308;2023-11-22T16:32:28;9.96;61.21
66582;SHT31;53438;48.898;2.308;2023-11-22T16:34:54;10.04;61.38
66582;SHT31;53438;48.898;2.308;2023-11-22T16:37:19;9.93;62.20
66582;SHT31;53438;48.898;2.308;2023-11-22T16:39:44;9.82;62.79
66582;SHT31;53438;48.898;2.308;2023-11-22T16:42:10;9.73;63.61
66582;SHT31;53438;48.898;2.308;2023-11-22T16:44:35;9.73;63.69
66582;SHT31;53438;48.898;2.308;2023-11-22T16:47:07;9.76;63.73
66582;SHT31;53438;48.898;2.308;2023-11-22T16:49:32;9.76;63.75
66582;SHT31;53438;48.898;2.308;2023-11-22T16:51:57;9.75;64.09
66582;SHT31;53438;48.898;2.308;2023-11-22T16:54:23;9.72;63.94
66582;SHT31;53438;48.898;2.308;2023-11-22T16:56:48;9.69;64.05
66582;SHT31;53438;48.898;2.308;2023-11-22T16:59:14;9.70;63.90
66582;SHT31;53438;48.898;2.308;2023-11-22T17:01:40;9.67;63.88
66582;SHT31;53438;48.898;2.308;2023-11-22T17:04:05;9.65;64.08
66582;SHT31;53438;48.898;2.308;2023-11-22T17:06:31;9.66;63.92
66582;SHT31;53438;48.898;2.308;2023-11-22T17:08:56;9.79;63.57
66582;SHT31;53438;48.898;2.308;2023-11-22T17:11:22;9.80;63.49
66582;SHT31;53438;48.898;2.308;2023-11-22T17:13:47;9.91;63.26
66582;SHT31;53438;48.898;2.308;2023-11-22T17:16:13;9.83;63.30
66582;SHT31;53438;48.898;2.308;2023-11-22T17:18:38;9.93;63.24
66582;SHT31;53438;48.898;2.308;2023-11-22T17:21:04;10.03;63.16
66582;SHT31;53438;48.898;2.308;2023-11-22T17:23:30;9.96;62.90
66582;SHT31;53438;48.898;2.308;2023-11-22T17:25:57;9.98;62.68
66582;SHT31;53438;48.898;2.308;2023-11-22T17:28:22;9.97;62.67
66582;SHT31;53438;48.898;2.308;2023-11-22T17:30:50;10.03;62.64
66582;SHT31;53438;48.898;2.308;2023-11-22T17:33:15;9.96;62.67
66582;SHT31;53438;48.898;2.308;2023-11-22T17:35:41;9.80;62.69
66582;SHT31;53438;48.898;2.308;2023-11-22T17:38:06;9.83;62.98
66582;SHT31;53438;48.898;2.308;2023-11-22T17:40:32;9.80;63.29
66582;SHT31;53438;48.898;2.308;2023-11-22T17:42:57;9.83;63.56
66582;SHT31;53438;48.898;2.308;2023-11-22T17:45:27;9.75;63.32
66582;SHT31;53438;48.898;2.308;2023-11-22T17:47:53;9.66;63.61
66582;SHT31;53438;48.898;2.308;2023-11-22T17:50:18;9.73;63.46
66582;SHT31;53438;48.898;2.308;2023-11-22T17:52:43;9.76;63.46
66582;SHT31;53438;48.898;2.308;2023-11-22T17:55:09;9.85;63.69
66582;SHT31;53438;48.898;2.308;2023-11-22T17:57:34;9.98;63.32
66582;SHT31;53438;48.898;2.308;2023-11-22T18:00:04;10.04;62.58
66582;SHT31;53438;48.898;2.308;2023-11-22T18:02:30;9.98;62.39
66582;SHT31;53438;48.898;2.308;2023-11-22T18:04:56;10.00;62.84
66582;SHT31;53438;48.898;2.308;2023-11-22T18:07:22;9.86;62.89
66582;SHT31;53438;48.898;2.308;2023-11-22T18:09:47;9.87;63.20
66582;SHT31;53438;48.898;2.308;2023-11-22T18:12:13;9.87;63.23
66582;SHT31;53438;48.898;2.308;2023-11-22T18:14:40;9.89;63.39
66582;SHT31;53438;48.898;2.308;2023-11-22T18:17:06;9.82;63.71
66582;SHT31;53438;48.898;2.308;2023-11-22T18:19:31;9.83;63.59
66582;SHT31;53438;48.898;2.308;2023-11-22T18:21:57;9.80;63.31
66582;SHT31;53438;48.898;2.308;2023-11-22T18:24:23;9.72;63.88
66582;SHT31;53438;48.898;2.308;2023-11-22T18:26:52;9.72;63.88
66582;SHT31;53438;48.898;2.308;2023-11-22T18:29:17;9.73;64.23
66582;SHT31;53438;48.898;2.308;2023-11-22T18:31:47;9.73;64.05
66582;SHT31;53438;48.898;2.308;2023-11-22T18:34:12;9.70;64.50
66582;SHT31;53438;48.898;2.308;2023-11-22T18:36:39;9.77;64.49
66582;SHT31;53438;48.898;2.308;2023-11-22T18:39:05;9.87;64.47